createdAt,value
2022-11-29T00:05:04.400Z,100245
2022-11-29T00:10:54.714Z,100248
2022-11-29T00:16:47.247Z,100244
2022-11-29T00:22:38.544Z,100250
2022-11-29T00:28:31.699Z,100247
2022-11-29T00:34:25.377Z,100243
2022-11-29T00:40:16.145Z,100250
2022-11-29T00:46:06.413Z,100253
2022-11-29T00:52:00.637Z,100241
2022-11-29T00:58:01.449Z,100245
2022-11-29T01:03:58.232Z,100243
2022-11-29T01:09:51.054Z,100257
2022-11-29T01:15:42.397Z,100249
2022-11-29T01:21:35.398Z,100260
2022-11-29T01:27:31.615Z,100257
2022-11-29T01:33:24.522Z,100260
2022-11-29T01:39:19.380Z,100265
2022-11-29T01:45:12.274Z,100271
2022-11-29T01:51:05.951Z,100271
2022-11-29T01:57:01.478Z,100273
2022-11-29T02:02:54.151Z,100273
2022-11-29T02:08:48.521Z,100275
2022-11-29T02:14:39.688Z,100283
2022-11-29T02:20:44.189Z,100279
2022-11-29T02:26:40.230Z,100277
2022-11-29T02:32:32.576Z,100286
2022-11-29T02:38:24.282Z,100285
2022-11-29T02:44:14.520Z,100286
2022-11-29T02:50:08.030Z,100292
2022-11-29T02:55:59.140Z,100288
2022-11-29T03:01:48.709Z,100288
2022-11-29T03:07:41.530Z,100288
2022-11-29T03:13:37.405Z,100292
2022-11-29T03:19:35.021Z,100294
2022-11-29T03:25:30.502Z,100304
2022-11-29T03:31:23.630Z,100302
2022-11-29T03:37:16.481Z,100308
2022-11-29T03:43:10.897Z,100316
2022-11-29T03:49:04.291Z,100321
2022-11-29T03:54:55.435Z,100318
2022-11-29T04:00:49.200Z,100320
2022-11-29T04:06:45.143Z,100323
2022-11-29T04:12:39.117Z,100330
2022-11-29T04:18:29.671Z,100338
2022-11-29T04:24:22.747Z,100338
2022-11-29T04:30:16.083Z,100344
2022-11-29T04:36:09.135Z,100348
2022-11-29T04:42:02.366Z,100346
2022-11-29T04:47:54.503Z,100358
2022-11-29T04:53:45.409Z,100370
2022-11-29T04:59:37.129Z,100377
2022-11-29T05:05:32.582Z,100385
2022-11-29T05:11:42.412Z,100383
2022-11-29T05:17:56.228Z,100392
2022-11-29T05:24:09.196Z,100397
2022-11-29T05:30:19.440Z,100403
2022-11-29T05:36:13.447Z,100413
2022-11-29T05:42:14.530Z,100410
2022-11-29T05:48:22.783Z,100411
2022-11-29T05:54:34.631Z,100413
2022-11-29T06:01:13.200Z,100413
2022-11-29T06:07:11.568Z,100418
2022-11-29T06:13:34.218Z,100431
2022-11-29T06:19:54.565Z,100441
2022-11-29T06:32:32.521Z,100456
2022-11-29T06:38:50.764Z,100453
2022-11-29T06:45:15.996Z,100453
2022-11-29T06:51:22.618Z,100464
2022-11-29T06:57:34.581Z,100469
2022-11-29T07:09:59.315Z,100482
2022-11-29T07:16:06.358Z,100488
2022-11-29T07:22:00.213Z,100492
2022-11-29T07:28:07.822Z,100499
2022-11-29T07:34:13.823Z,100501
2022-11-29T07:40:17.775Z,100513
2022-11-29T07:46:26.795Z,100508
2022-11-29T07:52:25.921Z,100518
2022-11-29T07:58:17.244Z,100526
2022-11-29T08:04:12.860Z,100525
2022-11-29T08:10:39.687Z,100528
2022-11-29T08:16:31.503Z,100536
2022-11-29T08:22:48.065Z,100538
2022-11-29T08:28:38.330Z,100543
2022-11-29T08:34:33.540Z,100554
2022-11-29T08:40:26.537Z,100560
2022-11-29T08:46:24.071Z,100566
2022-11-29T08:52:27.686Z,100579
2022-11-29T08:58:22.761Z,100579
2022-11-29T09:04:16.058Z,100582
2022-11-29T09:10:09.408Z,100587
2022-11-29T09:16:09.590Z,100598
2022-11-29T09:22:18.482Z,100607
2022-11-29T09:28:23.251Z,100613
2022-11-29T09:34:53.019Z,100618
2022-11-29T09:40:45.187Z,100629
2022-11-29T09:46:35.868Z,100632
2022-11-29T09:52:36.230Z,100640
2022-11-29T09:58:28.130Z,100646
2022-11-29T10:04:22.568Z,100653
2022-11-29T10:10:18.027Z,100661
2022-11-29T10:22:25.667Z,100661
2022-11-29T10:28:16.757Z,100664
2022-11-29T10:34:13.488Z,100664
2022-11-29T10:40:10.110Z,100661
2022-11-29T10:46:07.952Z,100664
2022-11-29T10:51:58.523Z,100662
2022-11-29T10:57:59.000Z,100661
2022-11-29T11:10:19.205Z,100670
2022-11-29T11:16:09.440Z,100663
2022-11-29T11:22:02.052Z,100671
2022-11-29T11:28:02.363Z,100662
2022-11-29T11:41:24.994Z,100666
2022-11-29T11:47:23.971Z,100671
2022-11-29T11:53:20.441Z,100669
2022-11-29T11:59:30.250Z,100679
2022-11-29T12:05:22.047Z,100674
2022-11-29T12:11:23.752Z,100676
2022-11-29T12:17:20.975Z,100679
2022-11-29T12:23:13.574Z,100677
2022-11-29T12:29:04.547Z,100688
2022-11-29T12:35:04.551Z,100689
2022-11-29T12:47:41.801Z,100705
2022-11-29T12:53:43.478Z,100714
2022-11-29T12:59:34.091Z,100717
2022-11-29T13:05:41.128Z,100721
2022-11-29T13:11:38.496Z,100726
2022-11-29T13:17:34.519Z,100733
2022-11-29T13:24:10.442Z,100734
2022-11-29T13:30:21.023Z,100735
2022-11-29T13:36:11.869Z,100738
2022-11-29T13:42:09.134Z,100738
2022-11-29T13:54:28.630Z,100749
2022-11-29T14:00:32.524Z,100753
2022-11-29T14:06:32.357Z,100754
2022-11-29T14:12:33.943Z,100758
2022-11-29T14:18:35.509Z,100761
2022-11-29T14:24:26.873Z,100763
2022-11-29T14:30:23.581Z,100762
2022-11-29T14:36:14.595Z,100767
2022-11-29T14:42:15.993Z,100772
2022-11-29T14:48:11.457Z,100770
2022-11-29T14:54:02.979Z,100771
2022-11-29T14:59:57.303Z,100774
2022-11-29T15:06:02.447Z,100775
2022-11-29T15:12:21.515Z,100778
2022-11-29T15:18:47.513Z,100790
2022-11-29T15:25:11.711Z,100793
2022-11-29T15:31:16.406Z,100785
2022-11-29T15:55:18.232Z,100801
2022-11-29T16:07:32.717Z,100813
2022-11-29T16:13:37.942Z,100815
2022-11-29T16:19:33.063Z,100814
2022-11-29T16:31:42.573Z,100819
2022-11-29T16:38:05.851Z,100826
2022-11-29T16:43:56.650Z,100831
2022-11-29T16:49:53.330Z,100833
2022-11-29T16:56:17.648Z,100837
2022-11-29T17:09:07.934Z,100844
2022-11-29T17:15:01.904Z,100843
2022-11-29T17:21:10.232Z,100845
2022-11-29T17:27:14.267Z,100843
2022-11-29T17:33:13.598Z,100847
2022-11-29T17:39:20.205Z,100855
2022-11-29T17:45:11.824Z,100854
2022-11-29T17:51:13.471Z,100860
2022-11-29T17:57:49.882Z,100858
2022-11-29T18:10:10.014Z,100870
2022-11-29T18:16:04.985Z,100877
2022-11-29T18:21:56.966Z,100872
2022-11-29T18:28:04.527Z,100875
2022-11-29T18:39:58.338Z,100872
2022-11-29T18:45:52.547Z,100887
2022-11-29T18:51:55.017Z,100889
2022-11-29T18:57:58.287Z,100893
2022-11-29T19:10:15.655Z,100905
2022-11-29T19:16:07.191Z,100917
2022-11-29T19:22:03.772Z,100916
2022-11-29T19:28:00.376Z,100920
2022-11-29T19:33:58.114Z,100929
2022-11-29T19:52:09.786Z,100931
2022-11-29T20:04:06.004Z,100933
2022-11-29T20:10:17.370Z,100929
2022-11-29T20:16:11.772Z,100938
2022-11-29T20:22:03.936Z,100937
2022-11-29T20:28:06.140Z,100936
2022-11-29T20:34:09.400Z,100938
2022-11-29T20:40:04.296Z,100943
2022-11-29T20:58:28.906Z,100953
2022-11-29T21:04:28.352Z,100956
2022-11-29T21:10:40.478Z,100954
2022-11-29T21:16:52.154Z,100957
2022-11-29T21:22:51.259Z,100956
2022-11-29T21:35:10.676Z,100957
2022-11-29T21:41:10.318Z,100950
2022-11-29T21:47:11.143Z,100960
2022-11-29T21:53:04.199Z,100963
2022-11-29T21:59:00.127Z,100971
2022-11-29T22:04:51.964Z,100967
2022-11-29T22:10:51.712Z,100963
2022-11-29T22:16:46.116Z,100969
2022-11-29T22:22:45.046Z,100963
2022-11-29T22:28:57.442Z,100958
2022-11-29T22:35:05.393Z,100957
2022-11-29T22:41:25.598Z,100951
2022-11-29T22:47:19.729Z,100955
2022-11-29T22:53:18.090Z,100967
2022-11-29T22:59:10.496Z,100973
2022-11-29T23:05:06.998Z,100973
2022-11-29T23:10:58.761Z,100974
2022-11-29T23:16:55.691Z,100985
2022-11-29T23:22:47.407Z,100995
2022-11-29T23:28:40.343Z,100998
2022-11-29T23:34:32.423Z,100999
2022-11-29T23:40:24.556Z,100998
2022-11-29T23:46:15.388Z,100987
2022-11-29T23:52:07.351Z,100993
2022-11-29T23:58:00.160Z,100996
